Midnight Coast — YJWE5 — position and weather

sailwx.info

Track history (hours):
 
Tides and Currents Weather Stations Pressure Air Temp Water Temp Dewpoint Dewpoint Depression Visibility Wind Speed Wind Dir Waves Ship Positions

Midnight Coast

Last reported at 2017-Nov-19 13:57 UTC. Time now 2017-Nov-21 21:01 UTC.
Position N 16°56' W 062°25'.

Length 53 m; draft 3 m.

Type: Cargo ship. MMSI: 577369000.

Date/timePositionNaut miles runAvg speedWind from/ knotsBaromVisibWave heightAir tempDewpointWater temp
2017-Nov-19 13:57N 16°56' W 062°25'5 9.1
2017-Nov-19 13:25N 16°53' W 062°20'4 9.1
2017-Nov-19 13:00N 16°51' W 062°17'5 9.2
2017-Nov-19 12:31N 16°48' W 062°13'1 1.7
2017-Nov-19 12:01N 16°48' W 062°12'0 0.0
2017-Nov-19 11:30N 16°48' W 062°12'0 0.0
2017-Nov-19 11:00N 16°48' W 062°12'0 0.7
2017-Nov-19 10:30N 16°48' W 062°13'0 0.1
2017-Nov-19 10:00N 16°48' W 062°13'0 0.0
2017-Nov-19 09:30N 16°48' W 062°13'0 0.0
2017-Nov-19 09:00N 16°48' W 062°13'0 0.0
2017-Nov-19 08:30N 16°48' W 062°13'0 0.0
2017-Nov-19 08:01N 16°48' W 062°13'0 0.0
2017-Nov-19 07:30N 16°48' W 062°13'0 0.0
2017-Nov-19 07:00N 16°48' W 062°13'0 0.0
2017-Nov-19 06:30N 16°48' W 062°13'0 0.0
2017-Nov-19 06:00N 16°48' W 062°13'0 0.0
2017-Nov-19 05:31N 16°48' W 062°13'0 0.0
2017-Nov-19 05:01N 16°48' W 062°13'0 0.0
2017-Nov-19 04:31N 16°48' W 062°13'0 0.0
2017-Nov-19 04:00N 16°48' W 062°13'0 0.2
2017-Nov-19 03:30N 16°48' W 062°13'4 8.6
2017-Nov-19 03:00N 16°52' W 062°15'5 9.9
2017-Nov-19 02:30N 16°56' W 062°18'79 9.6
2017-Nov-18 18:21N 17°59' W 063°07'  
Track history (hours):
 
Tides and Currents Weather Stations Pressure Air Temp Water Temp Dewpoint Dewpoint Depression Visibility Wind Speed Wind Dir Waves Ship Positions

Midnight Coast

Last reported at 2017-Nov-19 13:57 UTC. Time now 2017-Nov-21 21:01 UTC.
Position N 16°56' W 062°25'.

Length 53 m; draft 3 m.

Type: Cargo ship. MMSI: 577369000.

Date/timePositionNaut miles runAvg speedWind from/ knotsBaromVisibWave heightAir tempDewpointWater temp
2017-Nov-19 13:57N 16°56' W 062°25'5 9.1
2017-Nov-19 13:25N 16°53' W 062°20'4 9.1
2017-Nov-19 13:00N 16°51' W 062°17'5 9.2
2017-Nov-19 12:31N 16°48' W 062°13'1 1.7
2017-Nov-19 12:01N 16°48' W 062°12'0 0.0
2017-Nov-19 11:30N 16°48' W 062°12'0 0.0
2017-Nov-19 11:00N 16°48' W 062°12'0 0.7
2017-Nov-19 10:30N 16°48' W 062°13'0 0.1
2017-Nov-19 10:00N 16°48' W 062°13'0 0.0
2017-Nov-19 09:30N 16°48' W 062°13'0 0.0
2017-Nov-19 09:00N 16°48' W 062°13'0 0.0
2017-Nov-19 08:30N 16°48' W 062°13'0 0.0
2017-Nov-19 08:01N 16°48' W 062°13'0 0.0
2017-Nov-19 07:30N 16°48' W 062°13'0 0.0
2017-Nov-19 07:00N 16°48' W 062°13'0 0.0
2017-Nov-19 06:30N 16°48' W 062°13'0 0.0
2017-Nov-19 06:00N 16°48' W 062°13'0 0.0
2017-Nov-19 05:31N 16°48' W 062°13'0 0.0
2017-Nov-19 05:01N 16°48' W 062°13'0 0.0
2017-Nov-19 04:31N 16°48' W 062°13'0 0.0
2017-Nov-19 04:00N 16°48' W 062°13'0 0.2
2017-Nov-19 03:30N 16°48' W 062°13'4 8.6
2017-Nov-19 03:00N 16°52' W 062°15'5 9.9
2017-Nov-19 02:30N 16°56' W 062°18'79 9.6
2017-Nov-18 18:21N 17°59' W 063°07'  

Dump ship's entire track history